METAR Data
IDs: Format: Raw Decoded Include TAF

Data at: 1845 UTC 02 Oct 2022

KSET 021754Z AUTO 06007KT 020V090 10SM CLR 24/08 A3028 RMK AO2 SLP252 T02390083 10239 20100 58003
No TAF found for KSET

KSTL 021751Z 01011KT 10SM CLR 23/08 A3029 RMK AO2 SLP252 T02330078 10233 20100 58002

KSTL 021720Z 0218/0324 05006KT P6SM SKC